sensor_id;sensor_type;location;lat;lon;timestamp;P1;durP1;ratioP1;P2;durP2;ratioP2
36321;SDS011;23564;48.290;11.460;2023-03-01T00:01:49;35.17;;;17.90;;
36321;SDS011;23564;48.290;11.460;2023-03-01T00:04:14;33.70;;;17.58;;
36321;SDS011;23564;48.290;11.460;2023-03-01T00:06:41;31.55;;;16.92;;
36321;SDS011;23564;48.290;11.460;2023-03-01T00:09:10;30.30;;;16.95;;
36321;SDS011;23564;48.290;11.460;2023-03-01T00:11:37;36.83;;;17.33;;
36321;SDS011;23564;48.290;11.460;2023-03-01T00:14:02;33.30;;;16.92;;
36321;SDS011;23564;48.290;11.460;2023-03-01T00:16:41;32.65;;;17.48;;
36321;SDS011;23564;48.290;11.460;2023-03-01T00:19:11;32.05;;;17.83;;
36321;SDS011;23564;48.290;11.460;2023-03-01T00:21:38;33.85;;;18.70;;
36321;SDS011;23564;48.290;11.460;2023-03-01T00:24:04;34.42;;;17.80;;
36321;SDS011;23564;48.290;11.460;2023-03-01T00:26:31;34.65;;;18.10;;
36321;SDS011;23564;48.290;11.460;2023-03-01T00:28:57;35.25;;;18.88;;
36321;SDS011;23564;48.290;11.460;2023-03-01T00:31:25;32.47;;;18.42;;
36321;SDS011;23564;48.290;11.460;2023-03-01T00:33:53;31.13;;;17.27;;
36321;SDS011;23564;48.290;11.460;2023-03-01T00:36:23;31.02;;;16.73;;
36321;SDS011;23564;48.290;11.460;2023-03-01T00:38:50;33.95;;;18.42;;
36321;SDS011;23564;48.290;11.460;2023-03-01T00:41:16;30.85;;;17.70;;
36321;SDS011;23564;48.290;11.460;2023-03-01T00:43:43;32.70;;;17.42;;
36321;SDS011;23564;48.290;11.460;2023-03-01T00:46:10;36.20;;;18.17;;
36321;SDS011;23564;48.290;11.460;2023-03-01T00:48:42;40.05;;;18.60;;
36321;SDS011;23564;48.290;11.460;2023-03-01T00:51:09;36.38;;;17.00;;
36321;SDS011;23564;48.290;11.460;2023-03-01T00:53:38;34.10;;;18.23;;
36321;SDS011;23564;48.290;11.460;2023-03-01T00:56:05;33.05;;;17.40;;
36321;SDS011;23564;48.290;11.460;2023-03-01T00:58:31;33.50;;;18.73;;
36321;SDS011;23564;48.290;11.460;2023-03-01T01:00:57;31.92;;;17.98;;
36321;SDS011;23564;48.290;11.460;2023-03-01T01:03:23;35.85;;;17.83;;
36321;SDS011;23564;48.290;11.460;2023-03-01T01:05:50;32.58;;;17.67;;
36321;SDS011;23564;48.290;11.460;2023-03-01T01:08:16;34.38;;;17.70;;
36321;SDS011;23564;48.290;11.460;2023-03-01T01:10:43;35.17;;;17.98;;
36321;SDS011;23564;48.290;11.460;2023-03-01T01:13:09;35.28;;;17.95;;
36321;SDS011;23564;48.290;11.460;2023-03-01T01:15:35;32.88;;;18.75;;
36321;SDS011;23564;48.290;11.460;2023-03-01T01:18:01;34.08;;;18.23;;
36321;SDS011;23564;48.290;11.460;2023-03-01T01:20:27;35.13;;;18.92;;
36321;SDS011;23564;48.290;11.460;2023-03-01T01:22:52;35.60;;;19.38;;
36321;SDS011;23564;48.290;11.460;2023-03-01T01:25:18;35.08;;;18.15;;
36321;SDS011;23564;48.290;11.460;2023-03-01T01:27:44;29.80;;;16.55;;
36321;SDS011;23564;48.290;11.460;2023-03-01T01:30:10;33.78;;;17.65;;
36321;SDS011;23564;48.290;11.460;2023-03-01T01:32:36;36.28;;;17.98;;
36321;SDS011;23564;48.290;11.460;2023-03-01T01:35:01;41.78;;;18.92;;
36321;SDS011;23564;48.290;11.460;2023-03-01T01:37:27;33.47;;;18.55;;
36321;SDS011;23564;48.290;11.460;2023-03-01T01:39:56;32.85;;;18.02;;
36321;SDS011;23564;48.290;11.460;2023-03-01T01:42:26;32.47;;;18.52;;
36321;SDS011;23564;48.290;11.460;2023-03-01T01:47:54;35.05;;;17.20;;
36321;SDS011;23564;48.290;11.460;2023-03-01T01:50:23;31.75;;;17.65;;
36321;SDS011;23564;48.290;11.460;2023-03-01T01:52:50;35.08;;;18.27;;
36321;SDS011;23564;48.290;11.460;2023-03-01T01:55:19;35.03;;;18.40;;
36321;SDS011;23564;48.290;11.460;2023-03-01T01:57:52;37.92;;;18.48;;
36321;SDS011;23564;48.290;11.460;2023-03-01T02:00:25;32.75;;;18.42;;
36321;SDS011;23564;48.290;11.460;2023-03-01T02:02:56;32.25;;;18.38;;
36321;SDS011;23564;48.290;11.460;2023-03-01T02:08:40;33.58;;;17.70;;
36321;SDS011;23564;48.290;11.460;2023-03-01T02:11:08;36.22;;;18.15;;
36321;SDS011;23564;48.290;11.460;2023-03-01T02:13:36;36.20;;;18.05;;
36321;SDS011;23564;48.290;11.460;2023-03-01T02:16:03;32.33;;;17.33;;
36321;SDS011;23564;48.290;11.460;2023-03-01T02:18:40;33.35;;;17.60;;
36321;SDS011;23564;48.290;11.460;2023-03-01T02:23:35;33.78;;;18.65;;
36321;SDS011;23564;48.290;11.460;2023-03-01T02:26:47;36.47;;;17.63;;
36321;SDS011;23564;48.290;11.460;2023-03-01T02:28:56;30.38;;;16.77;;
36321;SDS011;23564;48.290;11.460;2023-03-01T02:31:22;33.13;;;18.58;;
36321;SDS011;23564;48.290;11.460;2023-03-01T02:34:07;35.15;;;18.70;;
36321;SDS011;23564;48.290;11.460;2023-03-01T02:36:48;34.65;;;18.33;;
36321;SDS011;23564;48.290;11.460;2023-03-01T02:39:46;33.85;;;18.02;;
36321;SDS011;23564;48.290;11.460;2023-03-01T02:42:14;34.97;;;18.23;;
36321;SDS011;23564;48.290;11.460;2023-03-01T02:44:45;30.95;;;16.88;;
36321;SDS011;23564;48.290;11.460;2023-03-01T02:47:10;33.88;;;18.60;;
36321;SDS011;23564;48.290;11.460;2023-03-01T02:49:36;32.95;;;17.67;;
36321;SDS011;23564;48.290;11.460;2023-03-01T02:52:47;31.65;;;18.33;;
36321;SDS011;23564;48.290;11.460;2023-03-01T02:55:11;36.75;;;18.88;;
36321;SDS011;23564;48.290;11.460;2023-03-01T02:57:40;35.83;;;18.70;;
36321;SDS011;23564;48.290;11.460;2023-03-01T03:00:09;33.22;;;18.05;;
36321;SDS011;23564;48.290;11.460;2023-03-01T03:02:44;34.25;;;18.42;;
36321;SDS011;23564;48.290;11.460;2023-03-01T03:05:13;32.17;;;18.02;;
36321;SDS011;23564;48.290;11.460;2023-03-01T03:07:42;37.00;;;18.60;;
36321;SDS011;23564;48.290;11.460;2023-03-01T03:10:11;30.65;;;17.50;;
36321;SDS011;23564;48.290;11.460;2023-03-01T03:12:39;33.00;;;17.40;;
36321;SDS011;23564;48.290;11.460;2023-03-01T03:15:05;33.72;;;17.95;;
36321;SDS011;23564;48.290;11.460;2023-03-01T03:17:36;34.03;;;18.52;;
36321;SDS011;23564;48.290;11.460;2023-03-01T03:20:03;34.03;;;19.33;;
36321;SDS011;23564;48.290;11.460;2023-03-01T03:22:31;32.58;;;18.73;;
36321;SDS011;23564;48.290;11.460;2023-03-01T03:24:59;36.95;;;17.58;;
36321;SDS011;23564;48.290;11.460;2023-03-01T03:27:24;38.97;;;19.27;;
36321;SDS011;23564;48.290;11.460;2023-03-01T03:29:50;37.70;;;18.48;;
36321;SDS011;23564;48.290;11.460;2023-03-01T03:32:16;31.10;;;18.23;;
36321;SDS011;23564;48.290;11.460;2023-03-01T03:34:41;34.65;;;18.65;;
36321;SDS011;23564;48.290;11.460;2023-03-01T03:37:07;33.20;;;17.98;;
36321;SDS011;23564;48.290;11.460;2023-03-01T03:39:52;38.30;;;17.50;;
36321;SDS011;23564;48.290;11.460;2023-03-01T03:42:19;36.75;;;18.70;;
36321;SDS011;23564;48.290;11.460;2023-03-01T03:44:46;32.15;;;16.98;;
36321;SDS011;23564;48.290;11.460;2023-03-01T03:47:12;35.45;;;18.42;;
36321;SDS011;23564;48.290;11.460;2023-03-01T03:49:38;33.38;;;17.70;;
36321;SDS011;23564;48.290;11.460;2023-03-01T03:52:03;36.45;;;19.48;;
36321;SDS011;23564;48.290;11.460;2023-03-01T03:54:29;36.38;;;18.92;;
36321;SDS011;23564;48.290;11.460;2023-03-01T03:56:55;33.58;;;18.17;;
36321;SDS011;23564;48.290;11.460;2023-03-01T03:59:20;31.77;;;17.73;;
36321;SDS011;23564;48.290;11.460;2023-03-01T04:01:46;33.45;;;18.13;;
36321;SDS011;23564;48.290;11.460;2023-03-01T04:04:11;33.33;;;18.13;;
36321;SDS011;23564;48.290;11.460;2023-03-01T04:06:38;33.65;;;17.60;;
36321;SDS011;23564;48.290;11.460;2023-03-01T04:09:03;37.53;;;20.17;;
36321;SDS011;23564;48.290;11.460;2023-03-01T04:11:29;35.38;;;19.27;;
36321;SDS011;23564;48.290;11.460;2023-03-01T04:13:56;32.38;;;18.65;;
36321;SDS011;23564;48.290;11.460;2023-03-01T04:16:23;33.67;;;18.55;;
36321;SDS011;23564;48.290;11.460;2023-03-01T04:18:49;35.45;;;17.95;;
36321;SDS011;23564;48.290;11.460;2023-03-01T04:21:15;35.15;;;18.50;;
36321;SDS011;23564;48.290;11.460;2023-03-01T04:23:41;37.03;;;19.45;;
36321;SDS011;23564;48.290;11.460;2023-03-01T04:26:07;36.38;;;18.63;;
36321;SDS011;23564;48.290;11.460;2023-03-01T04:28:34;38.83;;;19.08;;
36321;SDS011;23564;48.290;11.460;2023-03-01T04:36:11;37.85;;;18.42;;
36321;SDS011;23564;48.290;11.460;2023-03-01T04:38:37;39.50;;;19.85;;
36321;SDS011;23564;48.290;11.460;2023-03-01T04:41:05;35.15;;;18.42;;
36321;SDS011;23564;48.290;11.460;2023-03-01T04:43:31;33.72;;;17.98;;
36321;SDS011;23564;48.290;11.460;2023-03-01T04:46:02;35.42;;;18.40;;
36321;SDS011;23564;48.290;11.460;2023-03-01T04:48:31;36.95;;;18.65;;
36321;SDS011;23564;48.290;11.460;2023-03-01T04:50:58;32.83;;;17.95;;
36321;SDS011;23564;48.290;11.460;2023-03-01T04:53:24;33.35;;;18.25;;
36321;SDS011;23564;48.290;11.460;2023-03-01T04:55:50;40.90;;;18.65;;
36321;SDS011;23564;48.290;11.460;2023-03-01T04:58:16;33.13;;;18.42;;
36321;SDS011;23564;48.290;11.460;2023-03-01T05:00:41;39.42;;;20.02;;
36321;SDS011;23564;48.290;11.460;2023-03-01T05:03:07;42.85;;;21.00;;
36321;SDS011;23564;48.290;11.460;2023-03-01T05:05:36;38.88;;;20.55;;
36321;SDS011;23564;48.290;11.460;2023-03-01T05:08:04;37.00;;;20.17;;
36321;SDS011;23564;48.290;11.460;2023-03-01T05:10:31;36.05;;;20.30;;
36321;SDS011;23564;48.290;11.460;2023-03-01T05:13:00;41.92;;;20.02;;
36321;SDS011;23564;48.290;11.460;2023-03-01T05:15:26;45.08;;;22.50;;
36321;SDS011;23564;48.290;11.460;2023-03-01T05:17:53;37.53;;;20.10;;
36321;SDS011;23564;48.290;11.460;2023-03-01T05:20:20;37.05;;;18.83;;
36321;SDS011;23564;48.290;11.460;2023-03-01T05:22:50;38.60;;;19.30;;
36321;SDS011;23564;48.290;11.460;2023-03-01T05:25:16;40.67;;;21.02;;
36321;SDS011;23564;48.290;11.460;2023-03-01T05:27:42;38.10;;;20.67;;
36321;SDS011;23564;48.290;11.460;2023-03-01T05:30:08;43.78;;;20.98;;
36321;SDS011;23564;48.290;11.460;2023-03-01T05:32:44;44.60;;;20.13;;
36321;SDS011;23564;48.290;11.460;2023-03-01T05:35:12;39.58;;;19.27;;
36321;SDS011;23564;48.290;11.460;2023-03-01T05:37:40;38.95;;;20.80;;
36321;SDS011;23564;48.290;11.460;2023-03-01T05:40:16;36.45;;;19.52;;
36321;SDS011;23564;48.290;11.460;2023-03-01T05:42:47;37.13;;;20.05;;
36321;SDS011;23564;48.290;11.460;2023-03-01T05:45:21;41.60;;;19.48;;
36321;SDS011;23564;48.290;11.460;2023-03-01T05:47:48;40.45;;;19.55;;
36321;SDS011;23564;48.290;11.460;2023-03-01T05:50:18;36.63;;;19.85;;
36321;SDS011;23564;48.290;11.460;2023-03-01T05:52:47;44.20;;;20.42;;
36321;SDS011;23564;48.290;11.460;2023-03-01T05:55:14;41.35;;;18.73;;
36321;SDS011;23564;48.290;11.460;2023-03-01T05:57:41;38.38;;;19.92;;
36321;SDS011;23564;48.290;11.460;2023-03-01T06:00:07;40.05;;;19.85;;
36321;SDS011;23564;48.290;11.460;2023-03-01T06:02:34;37.25;;;19.02;;
36321;SDS011;23564;48.290;11.460;2023-03-01T06:05:00;37.42;;;19.60;;
36321;SDS011;23564;48.290;11.460;2023-03-01T06:07:26;38.85;;;19.63;;
36321;SDS011;23564;48.290;11.460;2023-03-01T06:09:51;37.50;;;18.70;;
36321;SDS011;23564;48.290;11.460;2023-03-01T06:12:17;34.95;;;19.10;;
36321;SDS011;23564;48.290;11.460;2023-03-01T06:14:42;36.05;;;18.42;;
36321;SDS011;23564;48.290;11.460;2023-03-01T06:17:08;38.30;;;20.17;;
36321;SDS011;23564;48.290;11.460;2023-03-01T06:19:33;37.85;;;19.23;;
36321;SDS011;23564;48.290;11.460;2023-03-01T06:21:59;38.53;;;19.48;;
36321;SDS011;23564;48.290;11.460;2023-03-01T06:24:24;38.67;;;19.38;;
36321;SDS011;23564;48.290;11.460;2023-03-01T06:26:53;36.80;;;19.42;;
36321;SDS011;23564;48.290;11.460;2023-03-01T06:29:18;43.95;;;19.52;;
36321;SDS011;23564;48.290;11.460;2023-03-01T06:31:44;35.05;;;18.30;;
36321;SDS011;23564;48.290;11.460;2023-03-01T06:34:10;40.40;;;19.85;;
36321;SDS011;23564;48.290;11.460;2023-03-01T06:36:38;41.20;;;20.15;;
36321;SDS011;23564;48.290;11.460;2023-03-01T06:39:04;37.38;;;19.13;;
36321;SDS011;23564;48.290;11.460;2023-03-01T06:41:30;36.70;;;19.00;;
36321;SDS011;23564;48.290;11.460;2023-03-01T06:43:56;38.63;;;19.92;;
36321;SDS011;23564;48.290;11.460;2023-03-01T06:46:21;35.20;;;19.10;;
36321;SDS011;23564;48.290;11.460;2023-03-01T06:48:47;36.85;;;18.70;;
36321;SDS011;23564;48.290;11.460;2023-03-01T06:51:13;37.42;;;19.08;;
36321;SDS011;23564;48.290;11.460;2023-03-01T06:53:38;33.30;;;18.45;;
36321;SDS011;23564;48.290;11.460;2023-03-01T06:56:04;35.17;;;19.00;;
36321;SDS011;23564;48.290;11.460;2023-03-01T06:58:29;38.47;;;19.98;;
36321;SDS011;23564;48.290;11.460;2023-03-01T07:00:55;33.45;;;18.15;;
36321;SDS011;23564;48.290;11.460;2023-03-01T07:03:21;38.58;;;18.70;;
36321;SDS011;23564;48.290;11.460;2023-03-01T07:05:50;38.58;;;19.70;;
36321;SDS011;23564;48.290;11.460;2023-03-01T07:08:19;36.92;;;19.45;;
36321;SDS011;23564;48.290;11.460;2023-03-01T07:10:44;44.75;;;20.15;;
36321;SDS011;23564;48.290;11.460;2023-03-01T07:13:10;36.97;;;19.17;;
36321;SDS011;23564;48.290;11.460;2023-03-01T07:15:36;36.00;;;19.52;;
36321;SDS011;23564;48.290;11.460;2023-03-01T07:18:01;40.08;;;19.08;;
36321;SDS011;23564;48.290;11.460;2023-03-01T07:20:27;41.08;;;20.00;;
36321;SDS011;23564;48.290;11.460;2023-03-01T07:22:53;37.60;;;20.05;;
36321;SDS011;23564;48.290;11.460;2023-03-01T07:25:20;41.42;;;20.13;;
36321;SDS011;23564;48.290;11.460;2023-03-01T07:27:51;39.30;;;20.50;;
36321;SDS011;23564;48.290;11.460;2023-03-01T07:32:43;37.45;;;19.13;;
36321;SDS011;23564;48.290;11.460;2023-03-01T07:35:10;33.83;;;18.83;;
36321;SDS011;23564;48.290;11.460;2023-03-01T07:37:36;44.33;;;20.23;;
36321;SDS011;23564;48.290;11.460;2023-03-01T07:40:01;36.22;;;19.17;;
36321;SDS011;23564;48.290;11.460;2023-03-01T07:42:27;42.35;;;19.88;;
36321;SDS011;23564;48.290;11.460;2023-03-01T07:44:53;37.35;;;19.85;;
36321;SDS011;23564;48.290;11.460;2023-03-01T07:47:18;40.35;;;20.80;;
36321;SDS011;23564;48.290;11.460;2023-03-01T07:49:44;35.70;;;19.95;;
36321;SDS011;23564;48.290;11.460;2023-03-01T07:52:12;42.25;;;18.08;;
36321;SDS011;23564;48.290;11.460;2023-03-01T07:54:38;37.83;;;20.75;;
36321;SDS011;23564;48.290;11.460;2023-03-01T07:57:04;41.85;;;19.23;;
36321;SDS011;23564;48.290;11.460;2023-03-01T07:59:29;39.70;;;20.63;;
36321;SDS011;23564;48.290;11.460;2023-03-01T08:01:57;42.05;;;20.70;;
36321;SDS011;23564;48.290;11.460;2023-03-01T08:04:23;39.42;;;19.52;;
36321;SDS011;23564;48.290;11.460;2023-03-01T08:06:51;38.60;;;20.23;;
36321;SDS011;23564;48.290;11.460;2023-03-01T08:09:17;37.78;;;19.65;;
36321;SDS011;23564;48.290;11.460;2023-03-01T08:11:43;41.92;;;19.60;;
36321;SDS011;23564;48.290;11.460;2023-03-01T08:14:08;40.65;;;20.30;;
36321;SDS011;23564;48.290;11.460;2023-03-01T08:16:35;36.80;;;19.63;;
36321;SDS011;23564;48.290;11.460;2023-03-01T08:19:05;40.00;;;19.70;;
36321;SDS011;23564;48.290;11.460;2023-03-01T08:21:31;39.75;;;19.85;;
36321;SDS011;23564;48.290;11.460;2023-03-01T08:23:59;38.92;;;19.92;;
36321;SDS011;23564;48.290;11.460;2023-03-01T08:26:25;41.88;;;20.85;;
36321;SDS011;23564;48.290;11.460;2023-03-01T08:28:51;35.90;;;19.25;;
36321;SDS011;23564;48.290;11.460;2023-03-01T08:31:21;41.90;;;21.00;;
36321;SDS011;23564;48.290;11.460;2023-03-01T08:36:20;35.80;;;18.23;;
36321;SDS011;23564;48.290;11.460;2023-03-01T08:38:49;38.17;;;20.67;;
36321;SDS011;23564;48.290;11.460;2023-03-01T08:41:15;40.22;;;20.30;;
36321;SDS011;23564;48.290;11.460;2023-03-01T08:43:41;35.25;;;19.65;;
36321;SDS011;23564;48.290;11.460;2023-03-01T08:46:07;41.17;;;20.25;;
36321;SDS011;23564;48.290;11.460;2023-03-01T08:48:33;41.75;;;20.05;;
36321;SDS011;23564;48.290;11.460;2023-03-01T08:51:12;44.17;;;21.13;;
36321;SDS011;23564;48.290;11.460;2023-03-01T08:53:40;37.78;;;20.17;;
36321;SDS011;23564;48.290;11.460;2023-03-01T08:56:06;39.55;;;20.10;;
36321;SDS011;23564;48.290;11.460;2023-03-01T08:58:32;39.22;;;20.50;;
36321;SDS011;23564;48.290;11.460;2023-03-01T09:00:58;36.78;;;20.45;;
36321;SDS011;23564;48.290;11.460;2023-03-01T09:03:25;41.58;;;20.58;;
36321;SDS011;23564;48.290;11.460;2023-03-01T09:05:51;37.40;;;20.23;;
36321;SDS011;23564;48.290;11.460;2023-03-01T09:08:17;37.20;;;19.70;;
36321;SDS011;23564;48.290;11.460;2023-03-01T09:10:43;37.47;;;20.38;;
36321;SDS011;23564;48.290;11.460;2023-03-01T09:13:09;35.83;;;19.10;;
36321;SDS011;23564;48.290;11.460;2023-03-01T09:15:38;37.80;;;19.02;;
36321;SDS011;23564;48.290;11.460;2023-03-01T09:18:04;41.75;;;20.20;;
36321;SDS011;23564;48.290;11.460;2023-03-01T09:20:30;37.42;;;19.60;;
36321;SDS011;23564;48.290;11.460;2023-03-01T09:22:57;39.88;;;20.67;;
36321;SDS011;23564;48.290;11.460;2023-03-01T09:25:22;39.55;;;20.10;;
36321;SDS011;23564;48.290;11.460;2023-03-01T09:27:52;42.42;;;21.20;;
36321;SDS011;23564;48.290;11.460;2023-03-01T09:30:18;43.55;;;20.77;;
36321;SDS011;23564;48.290;11.460;2023-03-01T09:32:44;37.85;;;20.05;;
36321;SDS011;23564;48.290;11.460;2023-03-01T09:35:10;42.38;;;22.23;;
36321;SDS011;23564;48.290;11.460;2023-03-01T09:37:36;36.22;;;20.13;;
36321;SDS011;23564;48.290;11.460;2023-03-01T09:40:06;37.63;;;19.75;;
36321;SDS011;23564;48.290;11.460;2023-03-01T09:42:51;35.17;;;20.00;;
36321;SDS011;23564;48.290;11.460;2023-03-01T09:45:26;39.05;;;20.00;;
36321;SDS011;23564;48.290;11.460;2023-03-01T09:47:58;39.95;;;20.50;;
36321;SDS011;23564;48.290;11.460;2023-03-01T09:50:32;37.50;;;21.35;;
36321;SDS011;23564;48.290;11.460;2023-03-01T09:53:05;42.45;;;21.77;;
36321;SDS011;23564;48.290;11.460;2023-03-01T09:55:44;40.55;;;21.85;;
36321;SDS011;23564;48.290;11.460;2023-03-01T09:58:35;45.47;;;22.00;;
36321;SDS011;23564;48.290;11.460;2023-03-01T10:06:46;44.80;;;21.42;;
36321;SDS011;23564;48.290;11.460;2023-03-01T10:09:19;42.83;;;21.90;;
36321;SDS011;23564;48.290;11.460;2023-03-01T10:11:48;39.55;;;21.08;;
36321;SDS011;23564;48.290;11.460;2023-03-01T10:14:27;39.25;;;22.10;;
36321;SDS011;23564;48.290;11.460;2023-03-01T10:17:05;45.88;;;22.65;;
36321;SDS011;23564;48.290;11.460;2023-03-01T10:19:49;40.47;;;21.25;;
36321;SDS011;23564;48.290;11.460;2023-03-01T10:22:16;40.25;;;21.52;;
36321;SDS011;23564;48.290;11.460;2023-03-01T10:24:46;42.37;;;21.80;;
36321;SDS011;23564;48.290;11.460;2023-03-01T10:27:21;43.92;;;21.88;;
36321;SDS011;23564;48.290;11.460;2023-03-01T10:30:13;41.88;;;22.15;;
36321;SDS011;23564;48.290;11.460;2023-03-01T10:32:45;46.78;;;22.90;;
36321;SDS011;23564;48.290;11.460;2023-03-01T10:35:17;45.90;;;23.00;;
36321;SDS011;23564;48.290;11.460;2023-03-01T10:37:57;42.28;;;22.63;;
36321;SDS011;23564;48.290;11.460;2023-03-01T10:40:32;40.70;;;22.25;;
36321;SDS011;23564;48.290;11.460;2023-03-01T10:42:59;40.88;;;22.50;;
36321;SDS011;23564;48.290;11.460;2023-03-01T10:50:40;45.92;;;22.42;;
36321;SDS011;23564;48.290;11.460;2023-03-01T10:53:18;41.42;;;22.17;;
36321;SDS011;23564;48.290;11.460;2023-03-01T10:55:56;44.03;;;23.20;;
36321;SDS011;23564;48.290;11.460;2023-03-01T10:58:41;41.30;;;22.33;;
36321;SDS011;23564;48.290;11.460;2023-03-01T11:01:32;43.47;;;21.67;;
36321;SDS011;23564;48.290;11.460;2023-03-01T11:04:12;39.55;;;21.23;;
36321;SDS011;23564;48.290;11.460;2023-03-01T11:06:39;39.70;;;22.00;;
36321;SDS011;23564;48.290;11.460;2023-03-01T11:09:17;37.95;;;20.92;;
36321;SDS011;23564;48.290;11.460;2023-03-01T11:11:53;45.28;;;22.63;;
36321;SDS011;23564;48.290;11.460;2023-03-01T11:14:21;42.03;;;22.50;;
36321;SDS011;23564;48.290;11.460;2023-03-01T11:16:57;43.08;;;22.95;;
36321;SDS011;23564;48.290;11.460;2023-03-01T11:19:28;41.55;;;21.10;;
36321;SDS011;23564;48.290;11.460;2023-03-01T11:21:56;43.10;;;22.67;;
36321;SDS011;23564;48.290;11.460;2023-03-01T11:24:25;40.15;;;22.23;;
36321;SDS011;23564;48.290;11.460;2023-03-01T11:27:16;40.13;;;22.00;;
36321;SDS011;23564;48.290;11.460;2023-03-01T11:29:45;42.38;;;23.17;;
36321;SDS011;23564;48.290;11.460;2023-03-01T11:32:16;39.17;;;22.87;;
36321;SDS011;23564;48.290;11.460;2023-03-01T11:34:43;40.78;;;21.25;;
36321;SDS011;23564;48.290;11.460;2023-03-01T11:37:44;42.60;;;22.05;;
36321;SDS011;23564;48.290;11.460;2023-03-01T11:40:25;36.63;;;21.55;;
36321;SDS011;23564;48.290;11.460;2023-03-01T11:43:11;42.03;;;22.20;;
36321;SDS011;23564;48.290;11.460;2023-03-01T11:48:25;39.30;;;20.45;;
36321;SDS011;23564;48.290;11.460;2023-03-01T11:50:54;39.50;;;21.48;;
36321;SDS011;23564;48.290;11.460;2023-03-01T11:56:22;35.55;;;20.10;;
36321;SDS011;23564;48.290;11.460;2023-03-01T12:01:29;38.00;;;20.30;;
36321;SDS011;23564;48.290;11.460;2023-03-01T12:10:23;41.88;;;21.08;;
36321;SDS011;23564;48.290;11.460;2023-03-01T12:15:39;36.75;;;21.00;;
36321;SDS011;23564;48.290;11.460;2023-03-01T12:18:19;36.53;;;20.88;;
36321;SDS011;23564;48.290;11.460;2023-03-01T12:35:47;41.20;;;20.63;;
36321;SDS011;23564;48.290;11.460;2023-03-01T12:38:30;40.22;;;19.58;;
36321;SDS011;23564;48.290;11.460;2023-03-01T12:43:47;35.35;;;19.75;;
36321;SDS011;23564;48.290;11.460;2023-03-01T12:46:38;40.03;;;20.77;;
36321;SDS011;23564;48.290;11.460;2023-03-01T12:49:21;38.33;;;20.20;;
36321;SDS011;23564;48.290;11.460;2023-03-01T12:51:54;38.33;;;19.52;;
36321;SDS011;23564;48.290;11.460;2023-03-01T12:54:28;39.30;;;20.30;;
36321;SDS011;23564;48.290;11.460;2023-03-01T12:57:08;40.15;;;20.75;;
36321;SDS011;23564;48.290;11.460;2023-03-01T13:00:05;35.30;;;20.27;;
36321;SDS011;23564;48.290;11.460;2023-03-01T13:02:40;39.00;;;21.13;;
36321;SDS011;23564;48.290;11.460;2023-03-01T13:05:31;35.70;;;19.23;;
36321;SDS011;23564;48.290;11.460;2023-03-01T13:10:50;37.80;;;20.00;;
36321;SDS011;23564;48.290;11.460;2023-03-01T13:13:25;38.00;;;19.92;;
36321;SDS011;23564;48.290;11.460;2023-03-01T13:15:52;31.70;;;18.50;;
36321;SDS011;23564;48.290;11.460;2023-03-01T13:26:02;32.33;;;18.83;;
36321;SDS011;23564;48.290;11.460;2023-03-01T13:33:52;32.85;;;18.00;;
36321;SDS011;23564;48.290;11.460;2023-03-01T13:47:16;34.13;;;18.70;;
36321;SDS011;23564;48.290;11.460;2023-03-01T13:49:46;34.75;;;18.08;;
36321;SDS011;23564;48.290;11.460;2023-03-01T13:55:14;37.47;;;19.27;;
36321;SDS011;23564;48.290;11.460;2023-03-01T13:58:00;35.17;;;20.67;;
36321;SDS011;23564;48.290;11.460;2023-03-01T14:00:36;34.78;;;19.63;;
36321;SDS011;23564;48.290;11.460;2023-03-01T14:06:29;34.58;;;19.13;;
36321;SDS011;23564;48.290;11.460;2023-03-01T14:08:31;35.97;;;19.38;;
36321;SDS011;23564;48.290;11.460;2023-03-01T14:19:30;33.83;;;19.50;;
36321;SDS011;23564;48.290;11.460;2023-03-01T14:24:49;31.83;;;18.20;;
36321;SDS011;23564;48.290;11.460;2023-03-01T14:27:17;36.63;;;19.33;;
36321;SDS011;23564;48.290;11.460;2023-03-01T14:29:43;29.48;;;17.08;;
36321;SDS011;23564;48.290;11.460;2023-03-01T14:32:24;34.63;;;19.35;;
36321;SDS011;23564;48.290;11.460;2023-03-01T14:34:55;34.75;;;19.35;;
36321;SDS011;23564;48.290;11.460;2023-03-01T14:37:30;29.02;;;17.42;;
36321;SDS011;23564;48.290;11.460;2023-03-01T14:39:59;31.20;;;17.88;;
36321;SDS011;23564;48.290;11.460;2023-03-01T14:42:30;30.52;;;17.42;;
36321;SDS011;23564;48.290;11.460;2023-03-01T14:45:00;32.97;;;17.48;;
36321;SDS011;23564;48.290;11.460;2023-03-01T14:47:28;30.38;;;17.10;;
36321;SDS011;23564;48.290;11.460;2023-03-01T14:50:42;34.40;;;18.13;;
36321;SDS011;23564;48.290;11.460;2023-03-01T14:52:46;33.17;;;17.90;;
36321;SDS011;23564;48.290;11.460;2023-03-01T14:55:16;34.10;;;18.65;;
36321;SDS011;23564;48.290;11.460;2023-03-01T14:57:47;34.78;;;17.67;;
36321;SDS011;23564;48.290;11.460;2023-03-01T15:00:20;34.35;;;18.25;;
36321;SDS011;23564;48.290;11.460;2023-03-01T15:02:48;35.13;;;18.35;;
36321;SDS011;23564;48.290;11.460;2023-03-01T15:05:18;30.42;;;17.33;;
36321;SDS011;23564;48.290;11.460;2023-03-01T15:07:57;33.10;;;17.73;;
36321;SDS011;23564;48.290;11.460;2023-03-01T15:10:29;33.00;;;17.95;;
36321;SDS011;23564;48.290;11.460;2023-03-01T15:13:13;34.15;;;17.17;;
36321;SDS011;23564;48.290;11.460;2023-03-01T15:15:47;32.30;;;16.83;;
36321;SDS011;23564;48.290;11.460;2023-03-01T15:20:40;29.58;;;15.80;;
36321;SDS011;23564;48.290;11.460;2023-03-01T15:23:12;30.35;;;15.93;;
36321;SDS011;23564;48.290;11.460;2023-03-01T15:25:48;28.87;;;16.97;;
36321;SDS011;23564;48.290;11.460;2023-03-01T15:28:37;33.90;;;15.93;;
36321;SDS011;23564;48.290;11.460;2023-03-01T15:31:16;28.70;;;16.45;;
36321;SDS011;23564;48.290;11.460;2023-03-01T15:33:45;31.33;;;16.10;;
36321;SDS011;23564;48.290;11.460;2023-03-01T15:36:31;31.48;;;15.52;;
36321;SDS011;23564;48.290;11.460;2023-03-01T15:41:54;27.80;;;15.05;;
36321;SDS011;23564;48.290;11.460;2023-03-01T15:44:30;28.27;;;14.20;;
36321;SDS011;23564;48.290;11.460;2023-03-01T15:47:20;31.23;;;14.52;;
36321;SDS011;23564;48.290;11.460;2023-03-01T15:50:05;26.20;;;14.82;;
36321;SDS011;23564;48.290;11.460;2023-03-01T15:52:41;31.63;;;15.10;;
36321;SDS011;23564;48.290;11.460;2023-03-01T15:55:24;30.77;;;13.95;;
36321;SDS011;23564;48.290;11.460;2023-03-01T15:57:58;31.20;;;16.05;;
36321;SDS011;23564;48.290;11.460;2023-03-01T16:00:42;29.83;;;14.82;;
36321;SDS011;23564;48.290;11.460;2023-03-01T16:03:08;28.83;;;15.02;;
36321;SDS011;23564;48.290;11.460;2023-03-01T16:05:37;26.55;;;14.45;;
36321;SDS011;23564;48.290;11.460;2023-03-01T16:08:04;30.15;;;14.68;;
36321;SDS011;23564;48.290;11.460;2023-03-01T16:10:31;28.27;;;13.73;;
36321;SDS011;23564;48.290;11.460;2023-03-01T16:12:58;24.08;;;13.32;;
36321;SDS011;23564;48.290;11.460;2023-03-01T16:15:25;25.42;;;13.48;;
36321;SDS011;23564;48.290;11.460;2023-03-01T16:17:53;25.02;;;13.70;;
36321;SDS011;23564;48.290;11.460;2023-03-01T16:20:19;23.77;;;12.35;;